Time;durP1;ratioP1;P1;durP2;ratioP2;P2;SDS_P1;SDS_P2;PMS_P1;PMS_P2;Temp;Humidity;BMP_temperature;BMP_pressure;BME280_temperature;BME280_humidity;BME280_pressure;Samples;Min_cycle;Max_cycle;Signal;HPM_P1;HPM_P2
2022/09/06 00:00:29;;;;;;;4.07;2.00;;;17.90;61.70;;;;;;5073588;28;20428;-48
2022/09/06 00:02:57;;;;;;;2.97;1.50;;;17.90;61.80;;;;;;5073783;28;20432;-48
2022/09/06 00:05:24;;;;;;;5.10;1.50;;;18.00;62.00;;;;;;5073760;28;20494;-48
2022/09/06 00:07:51;;;;;;;2.13;1.93;;;17.80;61.80;;;;;;5073665;28;20454;-49
2022/09/06 00:10:17;;;;;;;4.43;1.57;;;17.80;62.00;;;;;;5073201;28;20433;-47
2022/09/06 00:12:44;;;;;;;2.60;1.60;;;17.70;62.00;;;;;;5073729;28;20445;-48
2022/09/06 00:15:11;;;;;;;3.37;1.47;;;17.80;62.30;;;;;;5073539;28;20443;-48
2022/09/06 00:17:38;;;;;;;3.40;1.10;;;17.60;62.10;;;;;;5073560;28;20462;-48
2022/09/06 00:20:08;;;;;;;3.50;1.60;;;17.70;62.30;;;;;;5073250;28;20448;-47
2022/09/06 00:22:35;;;;;;;2.27;1.50;;;17.60;62.40;;;;;;5072236;28;20977;-47
2022/09/06 00:25:02;;;;;;;2.50;1.50;;;17.60;62.60;;;;;;5073404;28;20432;-47
2022/09/06 00:27:28;;;;;;;4.00;1.53;;;18.00;63.10;;;;;;5073203;28;20975;-47
2022/09/06 00:29:55;;;;;;;4.73;1.60;;;17.50;62.70;;;;;;5071718;28;20455;-48
2022/09/06 00:32:22;;;;;;;2.40;1.80;;;17.80;63.10;;;;;;5073665;28;20466;-47
2022/09/06 00:34:48;;;;;;;3.00;1.40;;;17.40;62.80;;;;;;5073223;28;20433;-48
2022/09/06 00:37:16;;;;;;;2.47;1.67;;;16.80;62.40;;;;;;5072839;28;20483;-47
2022/09/06 00:39:43;;;;;;;2.37;1.40;;;17.30;63.10;;;;;;5071354;28;20465;-46
2022/09/06 00:42:10;;;;;;;2.50;1.33;;;17.30;63.10;;;;;;5073096;28;20761;-49
2022/09/06 00:44:37;;;;;;;2.60;1.50;;;17.30;63.30;;;;;;5073262;28;20435;-48
2022/09/06 00:47:04;;;;;;;3.50;1.20;;;17.20;63.20;;;;;;5072908;28;20457;-49
2022/09/06 00:49:37;;;;;;;7.10;1.53;;;17.20;63.40;;;;;;5072773;28;20443;-48
2022/09/06 00:52:08;;;;;;;2.93;1.40;;;17.20;63.60;;;;;;5073005;28;20439;-49
2022/09/06 00:54:36;;;;;;;2.50;1.47;;;17.20;63.70;;;;;;5073107;28;20431;-48
2022/09/06 00:57:03;;;;;;;2.80;1.53;;;17.60;64.30;;;;;;5072659;28;20494;-47
2022/09/06 00:59:34;;;;;;;2.40;1.57;;;17.10;63.90;;;;;;5072247;28;20519;-48
2022/09/06 01:02:01;;;;;;;2.93;1.30;;;17.10;64.00;;;;;;5072582;28;20527;-48
2022/09/06 01:04:29;;;;;;;2.87;1.70;;;17.00;64.10;;;;;;5072476;28;20430;-49
2022/09/06 01:07:04;;;;;;;3.43;1.30;;;17.00;64.20;;;;;;5072540;28;20888;-47
2022/09/06 01:09:47;;;;;;;5.10;1.13;;;17.00;64.30;;;;;;5071513;28;20769;-46
2022/09/06 01:12:26;;;;;;;1.80;1.20;;;17.00;64.40;;;;;;5072524;28;20431;-47
2022/09/06 01:15:05;;;;;;;2.70;1.20;;;16.80;64.30;;;;;;5072392;28;20436;-47
2022/09/06 01:17:43;;;;;;;4.83;1.30;;;16.80;64.50;;;;;;5072189;28;20501;-47
2022/09/06 01:20:31;;;;;;;6.53;1.33;;;16.90;64.80;;;;;;5071903;28;20452;-47
2022/09/06 01:23:27;;;;;;;3.23;1.67;;;16.90;64.80;;;;;;5072336;28;20445;-48
2022/09/06 01:26:05;;;;;;;4.33;1.40;;;16.90;64.90;;;;;;5072018;28;21024;-47
2022/09/06 01:28:35;;;;;;;2.37;1.20;;;16.80;64.90;;;;;;5071833;28;20440;-48
2022/09/06 01:31:17;;;;;;;2.37;1.23;;;16.80;65.00;;;;;;5072030;28;20438;-48
2022/09/06 01:33:54;;;;;;;2.80;1.10;;;16.80;65.00;;;;;;5072009;28;20432;-48
2022/09/06 01:36:23;;;;;;;3.47;1.37;;;16.90;65.20;;;;;;5071822;28;20493;-47
2022/09/06 01:38:50;;;;;;;3.70;1.40;;;16.80;65.30;;;;;;5071555;28;20445;-47
2022/09/06 01:41:17;;;;;;;5.87;1.30;;;16.80;65.40;;;;;;5071936;28;20488;-49
2022/09/06 01:43:48;;;;;;;2.20;1.10;;;17.00;65.70;;;;;;5071973;28;20456;-48
2022/09/06 01:46:19;;;;;;;2.27;1.30;;;16.80;65.50;;;;;;5071799;28;20456;-47
2022/09/06 01:49:03;;;;;;;4.93;1.37;;;16.80;65.50;;;;;;5071474;28;20849;-47
2022/09/06 01:51:33;;;;;;;2.50;1.23;;;16.90;65.80;;;;;;5070538;28;20468;-47
2022/09/06 01:54:15;;;;;;;5.67;1.33;;;16.80;65.60;;;;;;5072122;28;20444;-48
2022/09/06 01:56:52;;;;;;;2.23;1.60;;;16.80;65.70;;;;;;5071528;28;20474;-50
2022/09/06 01:59:43;;;;;;;3.07;2.07;;;17.20;66.10;;;;;;5071303;28;20453;-49
2022/09/06 02:02:15;;;;;;;3.50;1.80;;;17.00;65.80;;;;;;5071703;28;20435;-48
2022/09/06 02:04:45;;;;;;;8.00;1.70;;;17.00;65.90;;;;;;5071641;28;20926;-48
2022/09/06 02:07:20;;;;;;;5.90;1.60;;;16.80;65.80;;;;;;5071516;28;20451;-47
2022/09/06 02:09:51;;;;;;;2.57;1.20;;;16.80;65.90;;;;;;5071391;28;20441;-48
2022/09/06 02:12:20;;;;;;;2.70;1.30;;;16.80;66.00;;;;;;5071950;28;20443;-48
2022/09/06 02:14:52;;;;;;;2.43;1.50;;;16.80;66.00;;;;;;5071712;28;20437;-48
2022/09/06 02:17:23;;;;;;;3.10;1.30;;;16.90;66.40;;;;;;5071668;28;20485;-47
2022/09/06 02:19:54;;;;;;;3.60;1.43;;;17.00;66.60;;;;;;5072446;28;20430;-49
2022/09/06 02:22:25;;;;;;;2.10;1.20;;;16.70;66.70;;;;;;5077991;28;20914;-49
2022/09/06 02:24:53;;;;;;;2.60;1.30;;;16.70;66.80;;;;;;5078255;28;20479;-48
2022/09/06 02:27:20;;;;;;;4.43;1.67;;;16.80;67.40;;;;;;5077823;28;20467;-49
2022/09/06 02:29:48;;;;;;;2.60;1.40;;;16.70;67.70;;;;;;5077481;28;20952;-48
2022/09/06 02:32:19;;;;;;;3.40;1.27;;;16.50;67.80;;;;;;5077936;28;20446;-47
2022/09/06 02:34:46;;;;;;;4.37;1.67;;;16.50;68.10;;;;;;5078126;28;20436;-47
2022/09/06 02:37:13;;;;;;;2.10;1.40;;;16.90;68.80;;;;;;5078046;28;20835;-48
2022/09/06 02:39:40;;;;;;;5.03;1.50;;;16.50;68.70;;;;;;5076457;28;20451;-47
2022/09/06 02:42:10;;;;;;;2.97;1.40;;;16.40;69.00;;;;;;5079125;28;20433;-48
2022/09/06 02:44:36;;;;;;;4.80;1.80;;;16.50;69.30;;;;;;5078285;28;20425;-49
2022/09/06 02:47:05;;;;;;;2.17;1.43;;;16.40;69.60;;;;;;5076678;28;20469;-47
2022/09/06 02:49:32;;;;;;;4.93;1.60;;;16.40;70.20;;;;;;5077528;28;20436;-47
2022/09/06 02:51:59;;;;;;;6.20;1.77;;;16.30;70.30;;;;;;5078240;28;20445;-48
2022/09/06 02:54:25;;;;;;;3.37;1.40;;;16.30;70.50;;;;;;5077189;28;20441;-48
2022/09/06 02:56:52;;;;;;;2.53;1.90;;;16.50;70.80;;;;;;5078929;28;20952;-47
2022/09/06 02:59:18;;;;;;;3.10;1.60;;;16.50;71.30;;;;;;5077876;28;20801;-47
2022/09/06 03:01:45;;;;;;;2.83;1.60;;;16.30;71.40;;;;;;5080104;28;20430;-48
2022/09/06 03:04:13;;;;;;;2.70;1.50;;;15.80;71.10;;;;;;5078728;28;20475;-48
2022/09/06 03:06:39;;;;;;;3.63;1.47;;;16.20;71.90;;;;;;5078988;28;20458;-47
2022/09/06 03:09:09;;;;;;;2.57;1.47;;;16.20;72.30;;;;;;5079218;28;20444;-48
2022/09/06 03:11:35;;;;;;;3.60;1.27;;;16.10;72.40;;;;;;5079276;28;20478;-48
2022/09/06 03:14:02;;;;;;;5.17;1.60;;;16.20;72.90;;;;;;5080124;28;20838;-47
2022/09/06 03:16:29;;;;;;;2.97;1.60;;;16.10;72.90;;;;;;5080188;28;20476;-47
2022/09/06 03:18:56;;;;;;;2.77;1.30;;;16.10;72.90;;;;;;5079272;28;20440;-48
2022/09/06 03:21:24;;;;;;;2.00;1.40;;;16.10;73.40;;;;;;5077953;28;20972;-47
2022/09/06 03:23:51;;;;;;;2.30;1.40;;;16.10;73.60;;;;;;5079216;28;20441;-48
2022/09/06 03:26:17;;;;;;;3.00;1.80;;;16.10;73.90;;;;;;5076877;28;20477;-47
2022/09/06 03:28:44;;;;;;;5.23;1.93;;;16.10;73.90;;;;;;5078339;28;20437;-48
2022/09/06 03:31:11;;;;;;;2.63;1.40;;;16.10;73.90;;;;;;5077901;28;20496;-48
2022/09/06 03:33:38;;;;;;;6.03;2.13;;;16.20;74.30;;;;;;5074574;28;20855;-49
2022/09/06 03:36:04;;;;;;;5.63;1.60;;;16.00;74.50;;;;;;5074524;28;20454;-47
2022/09/06 03:38:33;;;;;;;4.10;1.67;;;16.00;74.50;;;;;;5073549;28;20434;-48
2022/09/06 03:41:00;;;;;;;2.80;1.60;;;16.00;74.60;;;;;;5074366;28;20442;-48
2022/09/06 03:43:27;;;;;;;1.90;1.50;;;15.80;74.60;;;;;;5074225;28;20440;-48
2022/09/06 03:45:55;;;;;;;3.63;1.53;;;16.20;74.90;;;;;;5073952;28;20465;-48
2022/09/06 03:48:24;;;;;;;6.03;2.00;;;16.10;74.80;;;;;;5073939;28;20487;-48
2022/09/06 03:50:53;;;;;;;1.73;1.50;;;16.10;74.90;;;;;;5074190;28;20807;-48
2022/09/06 03:53:21;;;;;;;7.90;1.47;;;16.10;74.80;;;;;;5073857;28;20867;-49
2022/09/06 03:55:51;;;;;;;3.90;1.77;;;16.10;74.80;;;;;;5074016;28;20841;-49
2022/09/06 03:58:19;;;;;;;3.90;1.70;;;16.30;75.00;;;;;;5073845;28;20477;-47
2022/09/06 04:00:46;;;;;;;3.23;1.60;;;16.20;75.10;;;;;;5073499;28;20436;-47
2022/09/06 04:03:13;;;;;;;3.00;1.37;;;16.30;75.20;;;;;;5073787;28;20430;-48
2022/09/06 04:05:39;;;;;;;5.37;1.87;;;16.20;75.40;;;;;;5073555;28;20451;-48
2022/09/06 04:08:06;;;;;;;2.80;1.70;;;16.30;75.50;;;;;;5073425;28;20427;-47
2022/09/06 04:10:33;;;;;;;3.80;1.60;;;16.20;75.40;;;;;;5073134;28;20431;-48
2022/09/06 04:13:01;;;;;;;2.73;1.47;;;16.10;75.50;;;;;;5073582;28;20476;-48
2022/09/06 04:15:28;;;;;;;2.47;2.07;;;16.10;75.50;;;;;;5073332;28;20438;-48
2022/09/06 04:17:54;;;;;;;3.50;1.80;;;16.10;75.60;;;;;;5073172;28;20872;-47
2022/09/06 04:20:21;;;;;;;4.80;2.23;;;16.30;76.00;;;;;;5072785;28;20914;-49
2022/09/06 04:22:47;;;;;;;4.70;1.90;;;16.50;76.50;;;;;;5073296;28;20431;-48
2022/09/06 04:25:14;;;;;;;3.20;1.30;;;16.00;75.90;;;;;;5073252;28;20430;-47
2022/09/06 04:27:41;;;;;;;5.00;1.80;;;16.50;76.60;;;;;;5073685;28;20465;-51
2022/09/06 04:30:09;;;;;;;3.37;1.67;;;16.00;76.00;;;;;;5072817;28;20467;-52
2022/09/06 04:32:36;;;;;;;2.83;2.07;;;16.00;76.20;;;;;;5073210;28;20505;-52
2022/09/06 04:35:03;;;;;;;4.27;2.20;;;15.80;76.00;;;;;;5073032;28;20439;-52
2022/09/06 04:37:30;;;;;;;4.80;2.27;;;16.00;76.40;;;;;;5072593;28;20507;-52
2022/09/06 04:39:56;;;;;;;4.83;1.90;;;16.40;76.80;;;;;;5072639;28;20907;-52
2022/09/06 04:42:23;;;;;;;3.60;1.63;;;15.70;76.20;;;;;;5071514;28;20446;-52
2022/09/06 04:44:49;;;;;;;5.37;1.80;;;16.00;76.50;;;;;;5072430;28;20513;-50
2022/09/06 04:47:18;;;;;;;4.47;2.10;;;15.80;76.40;;;;;;5072620;28;20498;-51
2022/09/06 04:49:45;;;;;;;6.17;1.90;;;16.00;76.60;;;;;;5072340;28;20449;-51
2022/09/06 04:52:12;;;;;;;6.23;2.30;;;16.00;76.60;;;;;;5072633;28;20438;-49
2022/09/06 04:54:39;;;;;;;5.40;2.10;;;15.80;76.50;;;;;;5072542;28;20425;-51
2022/09/06 04:57:05;;;;;;;4.30;1.80;;;15.80;76.70;;;;;;5072375;28;20486;-51
2022/09/06 04:59:32;;;;;;;3.00;1.83;;;16.00;77.00;;;;;;5071871;28;20461;-51
2022/09/06 05:01:59;;;;;;;5.53;1.83;;;16.30;77.30;;;;;;5072301;28;20441;-50
2022/09/06 05:04:27;;;;;;;2.50;1.60;;;16.00;77.00;;;;;;5072290;28;20433;-50
2022/09/06 05:07:00;;;;;;;2.37;1.57;;;15.70;76.50;;;;;;5072356;28;20445;-51
2022/09/06 05:09:27;;;;;;;8.80;2.00;;;16.00;77.00;;;;;;5071836;28;20448;-52
2022/09/06 05:11:54;;;;;;;4.63;1.90;;;16.20;77.30;;;;;;5072146;28;20467;-50
2022/09/06 05:14:21;;;;;;;6.63;2.20;;;15.90;77.10;;;;;;5072076;28;20429;-52
2022/09/06 05:16:48;;;;;;;3.73;2.40;;;16.00;77.30;;;;;;5071287;28;20786;-54
2022/09/06 05:19:15;;;;;;;4.20;2.33;;;15.60;76.80;;;;;;5071844;28;20573;-52
2022/09/06 05:21:43;;;;;;;6.10;1.80;;;15.90;77.20;;;;;;5071934;28;20491;-51
2022/09/06 05:24:10;;;;;;;2.67;1.50;;;15.90;77.20;;;;;;5071907;28;20448;-51
2022/09/06 05:26:36;;;;;;;3.80;1.90;;;15.90;77.30;;;;;;5071308;28;20486;-51
2022/09/06 05:29:03;;;;;;;5.13;2.23;;;16.10;77.70;;;;;;5071152;28;20807;-52
2022/09/06 05:31:31;;;;;;;4.73;2.03;;;16.20;77.80;;;;;;5071564;28;20446;-52
2022/09/06 05:33:58;;;;;;;3.10;1.60;;;16.10;77.60;;;;;;5071314;28;20438;-52
2022/09/06 05:36:26;;;;;;;4.93;2.20;;;16.00;77.40;;;;;;5071283;28;20477;-52
2022/09/06 05:38:55;;;;;;;5.63;1.93;;;16.20;77.40;;;;;;5070621;28;20480;-52
2022/09/06 05:41:23;;;;;;;4.70;2.00;;;16.30;77.40;;;;;;5071432;28;20487;-52
2022/09/06 05:43:50;;;;;;;5.30;2.27;;;16.20;77.00;;;;;;5071021;28;20442;-51
2022/09/06 05:46:17;;;;;;;2.90;1.93;;;16.60;77.20;;;;;;5070971;28;20468;-52
2022/09/06 05:48:44;;;;;;;6.17;1.90;;;17.00;77.30;;;;;;5070358;28;20466;-52
2022/09/06 05:51:13;;;;;;;8.40;2.37;;;16.50;76.30;;;;;;5070957;28;20437;-53
2022/09/06 05:53:41;;;;;;;3.30;1.80;;;16.40;75.60;;;;;;5069498;28;20452;-53
2022/09/06 05:56:10;;;;;;;4.87;2.00;;;16.60;75.50;;;;;;5070378;28;20786;-52
2022/09/06 05:58:37;;;;;;;4.47;1.70;;;16.30;74.70;;;;;;5071021;28;20901;-51
2022/09/06 06:01:06;;;;;;;3.90;1.80;;;16.90;74.90;;;;;;5071024;28;20440;-52
2022/09/06 06:03:33;;;;;;;6.47;1.90;;;16.90;74.60;;;;;;5070830;28;20438;-52
2022/09/06 06:05:59;;;;;;;2.77;1.90;;;17.00;74.50;;;;;;5070750;28;20453;-54
2022/09/06 06:08:26;;;;;;;5.77;1.87;;;17.00;74.40;;;;;;5070911;28;20517;-51
2022/09/06 06:10:53;;;;;;;3.37;1.90;;;16.90;74.00;;;;;;5071151;28;20525;-52
2022/09/06 06:13:21;;;;;;;5.20;2.03;;;17.30;74.10;;;;;;5070880;28;20430;-50
2022/09/06 06:15:47;;;;;;;2.63;1.67;;;17.50;74.20;;;;;;5070925;28;20451;-52
2022/09/06 06:18:14;;;;;;;6.23;2.03;;;17.20;73.70;;;;;;5070964;28;20477;-51
2022/09/06 06:20:40;;;;;;;5.73;1.83;;;17.20;73.80;;;;;;5070468;28;20433;-51
2022/09/06 06:23:07;;;;;;;2.90;2.13;;;17.50;74.00;;;;;;5070930;28;20445;-51
2022/09/06 06:25:34;;;;;;;6.30;1.60;;;17.10;73.80;;;;;;5070695;28;20429;-51
2022/09/06 06:28:00;;;;;;;4.77;1.93;;;17.20;73.80;;;;;;5070858;28;20437;-51
2022/09/06 06:30:28;;;;;;;4.23;2.03;;;17.20;73.80;;;;;;5070808;28;21013;-52
2022/09/06 06:32:57;;;;;;;3.80;1.80;;;17.20;73.70;;;;;;5070936;28;20553;-53
2022/09/06 06:35:23;;;;;;;5.73;1.80;;;17.30;73.60;;;;;;5071050;28;20430;-51
2022/09/06 06:37:50;;;;;;;4.90;1.87;;;16.90;72.60;;;;;;5070677;28;20467;-50
2022/09/06 06:40:17;;;;;;;2.80;1.77;;;17.70;73.30;;;;;;5070834;28;20479;-52
2022/09/06 06:42:44;;;;;;;4.60;1.83;;;17.60;72.70;;;;;;5071064;28;20893;-52
2022/09/06 06:45:11;;;;;;;2.97;1.90;;;17.70;72.70;;;;;;5070934;28;20941;-51
2022/09/06 06:47:39;;;;;;;4.13;1.93;;;17.70;72.40;;;;;;5070382;28;20459;-54
2022/09/06 06:50:06;;;;;;;12.27;2.07;;;17.90;72.30;;;;;;5068753;28;20505;-51
2022/09/06 06:52:33;;;;;;;7.30;2.23;;;17.90;72.00;;;;;;5070594;28;20444;-52
2022/09/06 06:54:59;;;;;;;3.90;1.80;;;17.90;71.90;;;;;;5070607;28;20500;-50
2022/09/06 06:57:26;;;;;;;2.60;1.73;;;18.00;71.90;;;;;;5070530;28;20959;-52
2022/09/06 06:59:53;;;;;;;6.77;2.30;;;18.00;71.50;;;;;;5070161;28;20501;-50
2022/09/06 07:02:19;;;;;;;4.77;1.97;;;18.10;71.50;;;;;;5071119;28;20432;-51
2022/09/06 07:04:47;;;;;;;4.63;1.60;;;18.10;71.40;;;;;;5070475;28;20436;-51
2022/09/06 07:07:15;;;;;;;5.40;2.33;;;18.40;71.30;;;;;;5071206;28;20450;-53
2022/09/06 07:09:41;;;;;;;5.03;1.80;;;18.40;71.20;;;;;;5073730;28;20432;-52
2022/09/06 07:12:08;;;;;;;3.33;1.80;;;18.50;71.00;;;;;;5073950;28;20443;-52
2022/09/06 07:14:35;;;;;;;5.93;2.13;;;18.80;71.20;;;;;;5074091;28;20444;-52
2022/09/06 07:17:02;;;;;;;4.50;3.13;;;18.80;71.20;;;;;;5073377;28;20468;-52
2022/09/06 07:19:29;;;;;;;5.10;2.27;;;18.80;71.00;;;;;;5073564;28;20575;-52
2022/09/06 07:21:57;;;;;;;7.23;2.97;;;18.90;71.10;;;;;;5074127;28;20444;-52
2022/09/06 07:24:24;;;;;;;6.87;2.37;;;19.20;71.60;;;;;;5073973;28;20440;-51
2022/09/06 07:26:50;;;;;;;4.33;2.00;;;18.90;70.80;;;;;;5073799;28;20462;-51
2022/09/06 07:29:17;;;;;;;4.83;2.00;;;19.00;71.00;;;;;;5073626;28;20508;-51
2022/09/06 07:31:43;;;;;;;6.30;2.43;;;18.70;70.60;;;;;;5074082;28;20445;-50
2022/09/06 07:34:10;;;;;;;6.53;2.63;;;19.10;71.10;;;;;;5073902;28;20540;-52
2022/09/06 07:36:36;;;;;;;4.83;1.90;;;18.80;71.20;;;;;;5074021;28;20544;-51
2022/09/06 07:39:04;;;;;;;5.23;2.93;;;18.70;71.50;;;;;;5073563;28;20507;-51
2022/09/06 07:41:31;;;;;;;7.57;3.07;;;18.80;71.80;;;;;;5073535;28;20433;-53
2022/09/06 07:43:57;;;;;;;5.93;2.53;;;18.80;71.90;;;;;;5072467;28;20467;-51
2022/09/06 07:46:25;;;;;;;5.30;2.50;;;18.70;71.80;;;;;;5073682;28;20471;-51
2022/09/06 07:48:51;;;;;;;4.13;2.47;;;18.70;71.90;;;;;;5073387;28;20433;-53
2022/09/06 07:51:20;;;;;;;4.13;2.37;;;18.80;72.10;;;;;;5073600;28;20438;-51
2022/09/06 07:53:50;;;;;;;7.30;2.50;;;19.00;72.30;;;;;;5073817;28;20453;-52
2022/09/06 07:56:20;;;;;;;5.03;3.20;;;18.90;72.00;;;;;;5073853;28;20967;-52
2022/09/06 07:58:47;;;;;;;3.37;2.13;;;19.00;72.50;;;;;;5073006;28;20477;-52
2022/09/06 08:01:15;;;;;;;6.17;2.10;;;19.00;72.40;;;;;;5073404;28;20435;-52
2022/09/06 08:03:42;;;;;;;10.20;2.50;;;19.10;72.50;;;;;;5073291;28;20441;-50
2022/09/06 08:06:09;;;;;;;4.73;2.80;;;19.00;72.70;;;;;;5073247;28;20450;-53
2022/09/06 08:08:35;;;;;;;3.00;2.23;;;19.10;72.90;;;;;;5072727;28;20438;-52
2022/09/06 08:11:02;;;;;;;5.10;2.43;;;18.60;72.40;;;;;;5073237;28;20440;-51
2022/09/06 08:13:30;;;;;;;4.63;2.77;;;19.00;72.80;;;;;;5073375;28;20437;-52
2022/09/06 08:15:59;;;;;;;5.47;2.30;;;19.10;73.20;;;;;;5073052;28;20457;-52
2022/09/06 08:18:25;;;;;;;13.03;3.10;;;19.10;73.60;;;;;;5072254;28;20484;-49
2022/09/06 08:20:52;;;;;;;7.30;3.20;;;18.80;73.80;;;;;;5072880;28;20455;-52
2022/09/06 08:23:19;;;;;;;4.60;3.20;;;18.90;74.20;;;;;;5072782;28;20509;-52
2022/09/06 08:25:56;;;;;;;3.40;2.80;;;18.90;74.40;;;;;;5072743;28;20488;-51
2022/09/06 08:28:22;;;;;;;11.43;3.03;;;18.80;74.20;;;;;;5072670;28;20467;-50
2022/09/06 08:30:50;;;;;;;3.50;2.60;;;19.20;74.80;;;;;;5072833;28;20458;-52
2022/09/06 08:33:20;;;;;;;6.30;2.97;;;19.10;74.70;;;;;;5072721;28;20951;-52
2022/09/06 08:35:54;;;;;;;6.67;3.20;;;19.10;74.80;;;;;;5070889;28;20565;-52
2022/09/06 08:38:21;;;;;;;5.30;2.70;;;19.20;74.80;;;;;;5071542;28;20445;-51
2022/09/06 08:40:48;;;;;;;5.50;2.93;;;19.40;74.40;;;;;;5072490;28;20210;-51
2022/09/06 08:43:18;;;;;;;6.93;2.70;;;19.40;74.30;;;;;;5072494;28;20944;-51
2022/09/06 08:45:47;;;;;;;10.27;3.27;;;19.20;74.10;;;;;;5072333;28;20460;-50
2022/09/06 08:48:15;;;;;;;10.53;2.90;;;19.50;74.50;;;;;;5071210;28;20450;-52
2022/09/06 08:50:47;;;;;;;4.67;3.00;;;19.10;74.30;;;;;;5072116;28;20911;-51
2022/09/06 08:53:17;;;;;;;4.80;3.33;;;19.90;75.20;;;;;;5072173;28;20488;-51
2022/09/06 08:55:51;;;;;;;8.60;3.40;;;19.50;74.40;;;;;;5072144;28;20426;-52
2022/09/06 08:58:31;;;;;;;8.67;4.67;;;19.60;74.50;;;;;;5072082;28;20472;-51
2022/09/06 09:01:02;;;;;;;6.60;3.73;;;19.70;74.50;;;;;;5072172;28;20444;-50
2022/09/06 09:03:35;;;;;;;5.60;3.13;;;19.90;74.70;;;;;;5072311;28;20789;-52
2022/09/06 09:06:04;;;;;;;6.87;3.80;;;19.80;74.30;;;;;;5071863;28;20495;-51
2022/09/06 09:08:38;;;;;;;4.10;3.00;;;19.70;74.30;;;;;;5071826;28;20524;-53
2022/09/06 09:11:08;;;;;;;7.23;3.07;;;19.70;74.10;;;;;;5071897;28;21004;-53
2022/09/06 09:13:39;;;;;;;7.43;3.47;;;19.80;74.10;;;;;;5071765;28;20442;-54
2022/09/06 09:16:06;;;;;;;5.90;3.30;;;19.80;74.10;;;;;;5071519;28;20514;-51
2022/09/06 09:18:39;;;;;;;6.43;3.37;;;19.60;74.40;;;;;;5071430;28;20473;-51
2022/09/06 09:21:06;;;;;;;8.17;3.23;;;19.40;73.30;;;;;;5072022;28;20961;-52
2022/09/06 09:23:33;;;;;;;10.97;3.37;;;19.80;73.70;;;;;;5071595;28;20448;-50
2022/09/06 09:26:04;;;;;;;14.20;3.43;;;19.80;73.60;;;;;;5071318;28;20465;-51
2022/09/06 09:28:31;;;;;;;5.27;2.93;;;19.80;73.30;;;;;;5069758;28;20446;-50
2022/09/06 09:30:57;;;;;;;11.20;3.70;;;19.90;73.00;;;;;;5071035;28;20433;-52
2022/09/06 09:33:28;;;;;;;6.70;3.20;;;19.70;72.80;;;;;;5070256;28;20449;-53
2022/09/06 09:35:57;;;;;;;5.67;2.70;;;20.00;72.90;;;;;;5072026;28;20823;-52
2022/09/06 09:38:27;;;;;;;8.03;3.77;;;20.00;72.80;;;;;;5071299;28;20503;-52
2022/09/06 09:40:56;;;;;;;9.30;3.53;;;20.00;72.80;;;;;;5071889;28;20505;-51
2022/09/06 09:43:24;;;;;;;6.50;2.70;;;20.00;72.70;;;;;;5070765;28;20481;-53
2022/09/06 09:46:09;;;;;;;7.20;3.17;;;20.30;72.50;;;;;;5071977;28;20454;-52
2022/09/06 09:48:36;;;;;;;6.10;3.00;;;20.00;71.10;;;;;;5071080;28;20427;-52
2022/09/06 09:51:22;;;;;;;3.97;2.70;;;20.60;71.80;;;;;;5072010;28;20425;-52
2022/09/06 09:53:53;;;;;;;4.40;2.90;;;20.70;71.40;;;;;;5071902;28;20429;-52
2022/09/06 09:56:29;;;;;;;8.13;3.37;;;20.60;71.60;;;;;;5071989;28;20478;-51
2022/09/06 09:58:57;;;;;;;7.23;2.60;;;20.50;71.10;;;;;;5071450;28;20565;-52
2022/09/06 10:01:28;;;;;;;4.63;3.20;;;20.60;71.10;;;;;;5071830;28;20525;-51
2022/09/06 10:04:06;;;;;;;10.23;3.23;;;21.00;71.00;;;;;;5071600;28;20943;-52
2022/09/06 10:06:34;;;;;;;4.13;3.03;;;21.00;70.60;;;;;;5071216;28;20476;-53
2022/09/06 10:09:18;;;;;;;8.07;3.37;;;21.00;70.30;;;;;;5070623;28;20431;-52
2022/09/06 10:11:53;;;;;;;10.80;3.40;;;21.00;69.80;;;;;;5069748;28;20475;-53
2022/09/06 10:14:29;;;;;;;6.53;3.43;;;21.20;69.90;;;;;;5070052;28;20542;-51
2022/09/06 10:16:56;;;;;;;6.87;3.00;;;21.20;69.60;;;;;;5071257;28;20451;-51
2022/09/06 10:19:38;;;;;;;5.70;3.30;;;21.40;70.10;;;;;;5070676;28;20490;-53
2022/09/06 10:22:20;;;;;;;14.10;3.63;;;21.40;69.70;;;;;;5071475;28;20435;-53
2022/09/06 10:25:04;;;;;;;5.00;2.97;;;21.50;69.50;;;;;;5071550;28;20440;-52
2022/09/06 10:27:32;;;;;;;15.10;3.73;;;21.60;69.40;;;;;;5071169;28;20480;-53
2022/09/06 10:30:04;;;;;;;11.30;3.47;;;21.70;69.40;;;;;;5070546;28;20490;-51
2022/09/06 10:32:40;;;;;;;5.13;3.27;;;21.70;68.90;;;;;;5069840;28;20444;-52
2022/09/06 10:35:13;;;;;;;10.87;3.80;;;22.10;69.00;;;;;;5068972;28;20444;-53
2022/09/06 10:37:50;;;;;;;6.90;3.20;;;21.90;68.50;;;;;;5069509;28;20571;-51
2022/09/06 10:40:29;;;;;;;7.13;3.80;;;21.90;68.10;;;;;;5070202;28;20492;-51
2022/09/06 10:42:58;;;;;;;7.30;3.90;;;22.00;68.10;;;;;;5074529;28;20439;-51
2022/09/06 10:45:35;;;;;;;11.00;4.00;;;21.80;67.70;;;;;;5074707;28;20444;-51
2022/09/06 10:48:07;;;;;;;10.70;3.00;;;22.10;67.50;;;;;;5074849;28;20436;-52
2022/09/06 10:50:44;;;;;;;9.30;4.20;;;22.20;67.30;;;;;;5074193;28;20830;-52
2022/09/06 10:53:23;;;;;;;6.33;3.40;;;22.20;66.90;;;;;;5074976;28;20984;-52
2022/09/06 10:55:58;;;;;;;6.93;3.77;;;22.40;66.80;;;;;;5074552;28;20453;-52
2022/09/06 10:58:28;;;;;;;6.43;2.70;;;22.40;66.80;;;;;;5074594;28;20422;-50
2022/09/06 11:00:55;;;;;;;3.93;3.03;;;22.40;66.60;;;;;;5073510;28;20468;-52
2022/09/06 11:03:30;;;;;;;6.10;3.37;;;22.50;66.60;;;;;;5074972;28;20446;-53
2022/09/06 11:06:02;;;;;;;2.80;2.47;;;22.50;66.40;;;;;;5075027;28;20513;-51
2022/09/06 11:08:36;;;;;;;13.03;11.00;;;22.60;66.40;;;;;;5073866;28;20454;-52
2022/09/06 11:11:09;;;;;;;6.23;4.07;;;22.60;66.20;;;;;;5074646;28;20781;-51
2022/09/06 11:13:36;;;;;;;6.47;3.70;;;22.60;65.90;;;;;;5074617;28;20427;-51
2022/09/06 11:16:08;;;;;;;5.03;3.60;;;22.60;65.80;;;;;;5074200;28;20472;-52
2022/09/06 11:18:41;;;;;;;5.43;3.70;;;22.60;65.10;;;;;;5074111;28;20426;-50
2022/09/06 11:21:39;;;;;;;9.83;3.43;;;22.70;65.30;;;;;;5074490;28;20921;-51
2022/09/06 11:24:12;;;;;;;6.70;3.50;;;22.80;64.90;;;;;;5074757;28;20443;-52
2022/09/06 11:26:55;;;;;;;6.23;3.77;;;22.70;64.90;;;;;;5073942;28;20464;-54
2022/09/06 11:29:25;;;;;;;4.27;2.97;;;22.80;64.70;;;;;;5073822;28;20441;-52
2022/09/06 11:31:54;;;;;;;4.97;4.03;;;22.80;64.60;;;;;;5074111;28;20812;-52
2022/09/06 11:34:24;;;;;;;3.73;2.93;;;22.80;64.30;;;;;;5073679;28;20498;-52
2022/09/06 11:36:52;;;;;;;5.77;3.30;;;22.50;63.90;;;;;;5074081;28;20462;-53
2022/09/06 11:39:29;;;;;;;5.17;3.60;;;22.90;64.20;;;;;;5073305;28;20483;-52
2022/09/06 11:41:56;;;;;;;5.17;3.23;;;22.90;64.10;;;;;;5073860;28;20971;-52
2022/09/06 11:44:53;;;;;;;8.67;3.63;;;23.00;65.10;;;;;;5073431;28;20467;-52
2022/09/06 11:47:39;;;;;;;7.77;3.70;;;23.00;64.10;;;;;;5073997;28;20502;-51
2022/09/06 11:50:47;;;;;;;6.70;3.57;;;23.00;64.10;;;;;;5073254;28;20432;-51
2022/09/06 11:53:16;;;;;;;10.93;3.40;;;23.00;64.10;;;;;;5072573;28;20444;-53
2022/09/06 11:55:45;;;;;;;7.00;3.83;;;22.80;63.70;;;;;;5073638;28;20523;-54
2022/09/06 11:58:24;;;;;;;7.10;3.63;;;23.00;63.70;;;;;;5073210;28;20465;-53
2022/09/06 12:01:28;;;;;;;6.80;3.30;;;23.00;63.60;;;;;;5073361;28;20569;-53
2022/09/06 12:04:04;;;;;;;5.00;3.37;;;22.50;62.80;;;;;;5073184;28;20796;-52
2022/09/06 12:06:33;;;;;;;8.43;3.80;;;23.00;63.80;;;;;;5073488;28;20839;-52
2022/09/06 12:09:02;;;;;;;4.20;3.07;;;23.00;63.60;;;;;;5071318;28;20460;-53
2022/09/06 12:11:37;;;;;;;8.18;3.60;;;23.10;63.40;;;;;;5071915;28;20504;-51
2022/09/06 12:14:06;;;;;;;5.73;3.77;;;23.30;62.90;;;;;;5073747;28;20206;-54
2022/09/06 12:17:24;;;;;;;5.20;3.43;;;23.20;63.10;;;;;;5072542;28;20491;-54
2022/09/06 12:19:53;;;;;;;5.53;2.90;;;23.00;62.90;;;;;;5053747;28;20485;-52
2022/09/06 12:22:54;;;;;;;5.67;3.30;;;23.20;63.30;;;;;;5053920;28;20552;-54
2022/09/06 12:25:53;;;;;;;6.37;3.93;;;23.20;63.00;;;;;;4995885;28;20446;-52
2022/09/06 12:28:33;;;;;;;4.23;3.60;;;22.70;62.80;;;;;;5011845;28;20438;-52
2022/09/06 12:31:00;;;;;;;4.50;3.20;;;23.20;63.50;;;;;;5005388;28;20452;-52
2022/09/06 12:33:31;;;;;;;6.50;3.30;;;23.30;63.50;;;;;;4991217;28;20440;-51
2022/09/06 12:36:13;;;;;;;6.80;3.80;;;23.60;63.90;;;;;;4991372;28;20973;-51
2022/09/06 12:38:40;;;;;;;6.57;3.47;;;23.30;63.60;;;;;;5004288;28;20854;-52
2022/09/06 12:41:08;;;;;;;6.17;4.13;;;23.30;63.90;;;;;;5010685;28;20491;-52
2022/09/06 12:43:39;;;;;;;7.13;3.57;;;23.30;64.00;;;;;;5010809;28;20799;-53
2022/09/06 12:46:07;;;;;;;8.00;3.90;;;23.10;64.00;;;;;;5011121;28;20633;-51
2022/09/06 12:48:39;;;;;;;6.90;4.07;;;23.40;64.50;;;;;;5010600;28;20960;-54
2022/09/06 12:51:12;;;;;;;6.77;4.23;;;23.40;64.50;;;;;;5013275;28;20459;-52
2022/09/06 12:53:39;;;;;;;4.97;3.90;;;23.40;64.50;;;;;;5004356;28;20545;-53
2022/09/06 12:56:10;;;;;;;6.63;4.10;;;23.50;64.40;;;;;;5039986;28;20461;-52
2022/09/06 12:58:38;;;;;;;6.90;4.30;;;23.60;64.40;;;;;;5052607;28;20449;-52
2022/09/06 13:01:12;;;;;;;7.17;4.87;;;23.60;64.30;;;;;;5051297;28;20569;-52